Metar GG30 METAR message from awiacja.imgw.pl Metar G30 EPZG METAR EPZG 181430Z VRB02KT CAVOK 19/M00 Q1029 =